Time;durP1;ratioP1;P1;durP2;ratioP2;P2;SDS_P1;SDS_P2;PMS_P1;PMS_P2;Temp;Humidity;BMP_temperature;BMP_pressure;BME280_temperature;BME280_humidity;BME280_pressure;Samples;Min_cycle;Max_cycle;Signal;HPM_P1;HPM_P2
2023/04/14 00:00:34;;;;;;;1.05;0.50;;;17.10;79.90;;;;;;6277004;22;20439;-76
2023/04/14 00:03:00;;;;;;;1.20;0.63;;;17.60;80.20;;;;;;6277000;22;20027;-76
2023/04/14 00:05:30;;;;;;;2.83;0.70;;;17.50;48.10;;;;;;6276810;22;20002;-75
2023/04/14 00:07:56;;;;;;;2.33;1.00;;;17.60;80.60;;;;;;6277348;22;20079;-75
2023/04/14 00:10:23;;;;;;;1.73;1.00;;;;;;;;;;6277366;22;20330;-75
2023/04/14 00:12:49;;;;;;;1.08;0.50;;;;;;;;;;6287079;22;20070;-75
2023/04/14 00:15:15;;;;;;;2.30;0.90;;;;;;;;;;6287182;22;20011;-75
2023/04/14 00:17:41;;;;;;;2.53;0.80;;;;;;;;;;6287011;22;19996;-75
2023/04/14 00:20:07;;;;;;;1.75;0.55;;;17.40;49.20;;;;;;6287103;22;20023;-75
2023/04/14 00:22:33;;;;;;;1.25;0.60;;;17.40;49.40;;;;;;6277151;22;20323;-75
2023/04/14 00:25:00;;;;;;;1.52;0.45;;;;;;;;;;6275233;22;20439;-76
2023/04/14 00:27:26;;;;;;;1.52;0.60;;;17.40;80.80;;;;;;6287088;22;20041;-75
2023/04/14 00:29:51;;;;;;;1.48;0.70;;;17.30;81.00;;;;;;6287059;22;19999;-75
2023/04/14 00:32:17;;;;;;;1.27;0.60;;;17.50;77.90;;;;;;6287051;22;20069;-75
2023/04/14 00:34:43;;;;;;;0.90;0.50;;;;;;;;;;6286816;22;19995;-76
2023/04/14 00:37:09;;;;;;;0.90;0.50;;;;;;;;;;6286833;22;19992;-75
2023/04/14 00:39:35;;;;;;;2.70;0.85;;;;;;;;;;6286917;22;20349;-76
2023/04/14 00:42:02;;;;;;;1.55;0.82;;;17.30;70.10;;;;;;6287006;22;19991;-75
2023/04/14 00:44:27;;;;;;;0.82;0.43;;;17.40;80.60;;;;;;6287036;22;20011;-75
2023/04/14 00:46:54;;;;;;;1.42;0.45;;;17.30;79.30;;;;;;6286775;22;19995;-75
2023/04/14 00:49:20;;;;;;;1.27;0.60;;;;;;;;;;6287013;22;19996;-75
2023/04/14 00:51:47;;;;;;;0.98;0.60;;;17.00;73.70;;;;;;6286785;22;20373;-76
2023/04/14 00:54:14;;;;;;;1.58;0.60;;;17.50;80.30;;;;;;6275018;22;20504;-75
2023/04/14 00:56:40;;;;;;;1.35;0.73;;;17.40;80.50;;;;;;6286728;22;19999;-76
2023/04/14 00:59:06;;;;;;;2.03;0.85;;;17.10;80.40;;;;;;6286798;22;20014;-76
2023/04/14 01:01:35;;;;;;;2.58;0.77;;;17.50;80.60;;;;;;6286711;22;20023;-75
2023/04/14 01:04:01;;;;;;;3.05;1.02;;;17.20;79.80;;;;;;6286474;22;20018;-76
2023/04/14 01:06:28;;;;;;;1.80;0.85;;;16.90;77.20;;;;;;6286701;22;19996;-76
2023/04/14 01:08:54;;;;;;;2.78;0.85;;;17.30;80.20;;;;;;6286679;22;20423;-77
2023/04/14 01:11:50;;;;;;;2.05;0.75;;;17.50;80.40;;;;;;6286715;22;20022;-76
2023/04/14 01:14:27;;;;;;;2.38;0.70;;;17.20;80.60;;;;;;6286635;22;20030;-76
2023/04/14 01:17:00;;;;;;;1.65;0.60;;;17.30;52.40;;;;;;6286541;22;20434;-76
2023/04/14 01:19:41;;;;;;;1.13;0.60;;;17.40;80.60;;;;;;6286836;22;20377;-76
2023/04/14 01:22:09;;;;;;;1.30;0.65;;;17.40;80.90;;;;;;6286554;22;20394;-76
2023/04/14 01:25:05;;;;;;;1.95;0.70;;;17.30;81.10;;;;;;6286569;22;19999;-76
2023/04/14 01:28:08;;;;;;;2.42;0.68;;;17.10;62.80;;;;;;6286539;22;20006;-76
2023/04/14 01:31:12;;;;;;;1.65;0.77;;;17.00;80.20;;;;;;6286644;22;20190;-76
2023/04/14 01:33:41;;;;;;;1.48;0.80;;;17.40;73.90;;;;;;6285191;22;19992;-76
2023/04/14 01:36:17;;;;;;;1.98;0.73;;;17.40;70.90;;;;;;6286586;22;20000;-76
2023/04/14 01:38:44;;;;;;;0.85;0.60;;;17.30;80.20;;;;;;6286404;22;20003;-75
2023/04/14 01:41:12;;;;;;;1.05;0.65;;;16.90;64.50;;;;;;6286376;22;20020;-76
2023/04/14 01:43:41;;;;;;;1.80;0.70;;;17.20;49.80;;;;;;6286462;22;20024;-75
2023/04/14 01:46:12;;;;;;;1.38;0.50;;;17.20;79.90;;;;;;6286279;22;20045;-75
2023/04/14 01:48:39;;;;;;;1.67;0.80;;;17.20;79.90;;;;;;6286195;22;20034;-75
2023/04/14 01:51:05;;;;;;;1.55;0.70;;;17.20;80.00;;;;;;6286237;22;20015;-75
2023/04/14 01:53:34;;;;;;;2.97;0.90;;;17.30;69.00;;;;;;6286274;22;20031;-75
2023/04/14 01:56:01;;;;;;;1.33;0.80;;;17.10;80.10;;;;;;6275837;22;19992;-75
2023/04/14 01:58:29;;;;;;;2.35;0.85;;;17.30;73.00;;;;;;6286075;22;20003;-75
2023/04/14 02:00:56;;;;;;;1.85;0.90;;;17.20;62.80;;;;;;6286032;22;20330;-75
2023/04/14 02:03:23;;;;;;;0.80;0.55;;;17.20;79.90;;;;;;6285925;22;20406;-75
2023/04/14 02:05:52;;;;;;;0.95;0.50;;;17.10;49.80;;;;;;6286153;22;19995;-75
2023/04/14 02:08:21;;;;;;;1.67;0.70;;;17.10;79.90;;;;;;6285910;22;20002;-76
2023/04/14 02:10:51;;;;;;;1.50;0.90;;;17.20;50.10;;;;;;6286067;22;20099;-76
2023/04/14 02:13:18;;;;;;;2.05;0.60;;;17.30;80.40;;;;;;6286057;22;19995;-76
2023/04/14 02:15:47;;;;;;;1.95;0.85;;;16.80;52.40;;;;;;6286095;22;20438;-76
2023/04/14 02:18:14;;;;;;;1.27;0.63;;;16.90;80.20;;;;;;6285918;22;20370;-76
2023/04/14 02:20:43;;;;;;;2.15;0.90;;;16.70;80.30;;;;;;6276030;22;19995;-76
2023/04/14 02:23:10;;;;;;;1.73;1.00;;;17.20;58.00;;;;;;6285973;22;20002;-76
2023/04/14 02:25:36;;;;;;;1.90;0.90;;;;;;;;;;6285904;22;19996;-77
2023/04/14 02:28:13;;;;;;;1.80;0.75;;;17.20;80.40;;;;;;6275474;22;20003;-75
2023/04/14 02:30:43;;;;;;;1.83;0.75;;;16.80;79.80;;;;;;6275832;22;19996;-76
2023/04/14 02:33:15;;;;;;;1.70;0.68;;;17.20;62.10;;;;;;6275916;22;19995;-76
2023/04/14 02:35:46;;;;;;;2.20;0.73;;;17.20;80.00;;;;;;6275936;22;20322;-76
2023/04/14 02:38:28;;;;;;;1.65;0.75;;;16.70;79.70;;;;;;6275723;22;20014;-76
2023/04/14 02:40:55;;;;;;;1.23;0.80;;;17.10;80.00;;;;;;6275504;22;20019;-75
2023/04/14 02:43:29;;;;;;;2.05;0.80;;;16.90;49.10;;;;;;6275409;22;19995;-75
2023/04/14 02:45:57;;;;;;;2.50;0.90;;;16.60;65.70;;;;;;6285793;22;20071;-75
2023/04/14 02:48:26;;;;;;;2.88;0.93;;;17.20;55.00;;;;;;6285715;22;19996;-76
2023/04/14 02:50:54;;;;;;;1.50;0.93;;;17.00;79.80;;;;;;6285885;22;20026;-75
2023/04/14 02:53:22;;;;;;;1.92;0.75;;;17.20;80.00;;;;;;6275760;22;20025;-75
2023/04/14 02:55:53;;;;;;;1.90;1.02;;;17.00;49.80;;;;;;6275738;22;20006;-75
2023/04/14 02:58:19;;;;;;;;;;;16.90;50.70;;;;;;6276134;22;20061;-75
2023/04/14 03:00:46;;;;;;;1.25;0.70;;;17.10;70.10;;;;;;6275566;22;19933;-75
2023/04/14 03:03:12;;;;;;;3.33;0.70;;;16.70;79.50;;;;;;6285233;22;20008;-76
2023/04/14 03:05:40;;;;;;;1.90;0.60;;;17.10;79.90;;;;;;6285718;22;20006;-76
2023/04/14 03:08:07;;;;;;;1.88;0.70;;;17.00;79.70;;;;;;6285672;22;19996;-75
2023/04/14 03:10:33;;;;;;;3.20;1.23;;;17.10;80.00;;;;;;6279660;22;20068;-76
2023/04/14 03:13:02;;;;;;;0.90;0.75;;;16.90;79.80;;;;;;6285646;22;20071;-76
2023/04/14 03:15:29;;;;;;;3.90;1.00;;;17.20;79.90;;;;;;6285602;22;20019;-75
2023/04/14 03:17:56;;;;;;;1.73;0.80;;;17.00;79.80;;;;;;6285346;22;20022;-75
2023/04/14 03:20:22;;;;;;;2.10;1.13;;;16.70;79.70;;;;;;6285433;22;19999;-75
2023/04/14 03:22:56;;;;;;;1.80;0.80;;;17.10;73.40;;;;;;6285489;22;20374;-75
2023/04/14 03:25:26;;;;;;;1.88;1.30;;;16.90;79.80;;;;;;6285561;22;20016;-75
2023/04/14 03:27:53;;;;;;;2.40;1.03;;;16.90;49.80;;;;;;6285721;22;19999;-76
2023/04/14 03:30:24;;;;;;;2.63;1.10;;;16.90;79.90;;;;;;6285484;22;19996;-76
2023/04/14 03:32:51;;;;;;;1.20;0.90;;;16.90;79.60;;;;;;6275274;22;19996;-76
2023/04/14 03:35:20;;;;;;;1.73;1.13;;;17.00;79.70;;;;;;6275462;22;20012;-76
2023/04/14 03:37:49;;;;;;;2.40;1.23;;;17.00;79.70;;;;;;6275039;22;20560;-76
2023/04/14 03:40:16;;;;;;;1.92;0.90;;;17.00;75.10;;;;;;6275191;22;20334;-76
2023/04/14 03:42:45;;;;;;;1.63;0.90;;;16.40;66.70;;;;;;6275626;22;20007;-76
2023/04/14 03:45:11;;;;;;;2.90;1.20;;;;;;;;;;6275362;22;19996;-75
2023/04/14 03:47:37;;;;;;;2.75;1.13;;;16.90;79.70;;;;;;6275380;22;19996;-75
2023/04/14 03:50:07;;;;;;;2.92;1.27;;;17.00;79.50;;;;;;6275088;22;20054;-76
2023/04/14 03:52:36;;;;;;;2.35;0.93;;;17.00;79.80;;;;;;6275534;22;20019;-76
2023/04/14 03:55:05;;;;;;;2.30;1.10;;;16.80;79.90;;;;;;6275189;22;19996;-75
2023/04/14 03:57:32;;;;;;;2.30;1.00;;;16.90;79.60;;;;;;6274918;22;20003;-75
2023/04/14 04:00:04;;;;;;;2.40;1.00;;;17.00;79.90;;;;;;6275578;22;20079;-76
2023/04/14 04:02:30;;;;;;;2.63;1.27;;;16.90;78.50;;;;;;6285183;22;20004;-75
2023/04/14 04:04:57;;;;;;;2.03;1.00;;;16.60;79.50;;;;;;6285533;22;19999;-75
2023/04/14 04:07:25;;;;;;;2.33;1.08;;;16.90;49.80;;;;;;6285334;22;19996;-75
2023/04/14 04:09:52;;;;;;;3.17;1.10;;;16.70;49.60;;;;;;6285350;22;19996;-77
2023/04/14 04:12:22;;;;;;;2.22;1.13;;;16.80;79.40;;;;;;6289419;22;19998;-75
2023/04/14 04:14:48;;;;;;;2.95;1.33;;;;;;;;;;6290770;22;19995;-80
2023/04/14 04:17:18;;;;;;;2.65;1.40;;;16.70;49.30;;;;;;6287046;22;19991;-77
2023/04/14 04:19:45;;;;;;;;;;;16.80;50.10;;;;;;6287656;22;20007;-76
2023/04/14 04:22:15;;;;;;;2.30;0.93;;;16.80;49.40;;;;;;6287141;22;20287;-75
2023/04/14 04:24:43;;;;;;;3.17;1.00;;;16.90;49.30;;;;;;6286915;22;20312;-74
2023/04/14 04:27:09;;;;;;;2.47;1.15;;;;;;;;;;6286874;22;20057;-75
2023/04/14 04:29:37;;;;;;;3.65;1.20;;;18.10;49.80;;;;;;6286656;22;19995;-75
2023/04/14 04:32:04;;;;;;;2.75;1.25;;;16.80;78.70;;;;;;6287013;22;20042;-75
2023/04/14 04:34:31;;;;;;;3.22;1.02;;;16.90;78.30;;;;;;6286745;22;20133;-75
2023/04/14 04:37:00;;;;;;;2.38;1.10;;;16.90;78.60;;;;;;6286745;22;19992;-75
2023/04/14 04:39:26;;;;;;;4.13;1.48;;;;;;;;;;6276913;22;20004;-75
2023/04/14 04:42:03;;;;;;;2.60;1.10;;;16.80;48.60;;;;;;6276500;22;20000;-75
2023/04/14 04:44:33;;;;;;;1.55;0.98;;;16.80;49.20;;;;;;6276868;22;20078;-75
2023/04/14 04:46:59;;;;;;;4.63;1.08;;;16.90;78.60;;;;;;6286856;22;19996;-75
2023/04/14 04:49:25;;;;;;;3.38;1.00;;;16.90;61.30;;;;;;6286809;22;19999;-75
2023/04/14 04:51:51;;;;;;;3.25;1.50;;;;;;;;;;6286647;22;19999;-75
2023/04/14 04:54:17;;;;;;;2.55;1.55;;;16.90;56.10;;;;;;6286725;22;19995;-75
2023/04/14 04:56:43;;;;;;;3.08;1.70;;;16.90;78.80;;;;;;6286667;22;20026;-75
2023/04/14 04:59:10;;;;;;;3.00;2.10;;;16.80;78.70;;;;;;6286878;22;20090;-75
2023/04/14 05:01:36;;;;;;;2.60;2.40;;;;;;;;;;6286633;22;19995;-75
2023/04/14 05:04:02;;;;;;;3.67;3.30;;;16.90;78.80;;;;;;6276155;22;20016;-75
2023/04/14 05:06:28;;;;;;;3.60;3.30;;;16.70;78.80;;;;;;6276804;22;19996;-75
2023/04/14 05:08:54;;;;;;;6.13;4.50;;;17.00;78.70;;;;;;6286693;22;20006;-75
2023/04/14 05:11:20;;;;;;;6.13;5.63;;;16.70;78.90;;;;;;6286743;22;19999;-75
2023/04/14 05:13:46;;;;;;;7.20;6.50;;;16.60;79.00;;;;;;6286593;22;20003;-75
2023/04/14 05:16:12;;;;;;;8.48;7.75;;;16.70;79.20;;;;;;6286864;22;20053;-76
2023/04/14 05:18:39;;;;;;;9.98;9.07;;;16.90;79.80;;;;;;6286838;22;20008;-76
2023/04/14 05:21:07;;;;;;;10.50;9.70;;;16.80;50.20;;;;;;6286507;22;20441;-76
2023/04/14 05:23:34;;;;;;;10.85;10.05;;;16.80;80.20;;;;;;6286220;22;19996;-76
2023/04/14 05:26:00;;;;;;;12.70;11.48;;;16.70;79.70;;;;;;6286590;22;19995;-75
2023/04/14 05:28:25;;;;;;;13.05;11.95;;;16.90;71.50;;;;;;6286371;22;20075;-76
2023/04/14 05:30:51;;;;;;;14.45;13.35;;;16.80;64.80;;;;;;6286351;22;19992;-77
2023/04/14 05:33:18;;;;;;;14.82;13.32;;;;;;;;;;6285132;22;19999;-77
2023/04/14 05:35:44;;;;;;;15.43;14.07;;;;;;;;;;6286720;22;20027;-76
2023/04/14 05:38:10;;;;;;;14.95;13.60;;;16.70;80.40;;;;;;6286724;22;20008;-75
2023/04/14 05:40:35;;;;;;;15.15;13.85;;;16.80;80.10;;;;;;6287036;22;19992;-75
2023/04/14 05:43:01;;;;;;;15.27;14.07;;;16.80;66.20;;;;;;6287076;22;20030;-75
2023/04/14 05:45:27;;;;;;;15.02;13.73;;;;;;;;;;6287008;22;19992;-75
2023/04/14 05:47:53;;;;;;;14.50;13.20;;;;;;;;;;6286678;22;20023;-75
2023/04/14 05:50:21;;;;;;;14.18;13.07;;;;;;;;;;6286263;22;20038;-75
2023/04/14 05:52:47;;;;;;;14.32;13.05;;;16.60;80.30;;;;;;6286340;22;19997;-75
2023/04/14 05:55:12;;;;;;;13.40;12.25;;;16.60;80.00;;;;;;6286309;22;20022;-76
2023/04/14 05:57:38;;;;;;;13.50;12.27;;;16.70;79.90;;;;;;6286179;22;19996;-76
2023/04/14 06:00:05;;;;;;;12.65;11.65;;;16.60;79.50;;;;;;6286095;22;20474;-76
2023/04/14 06:02:30;;;;;;;10.98;9.90;;;16.70;79.90;;;;;;6275539;22;20012;-75
2023/04/14 06:04:58;;;;;;;11.05;10.13;;;16.90;80.20;;;;;;6286136;22;20000;-75
2023/04/14 06:07:24;;;;;;;10.63;9.73;;;16.70;79.90;;;;;;6286241;22;20027;-74
2023/04/14 06:09:49;;;;;;;10.63;9.50;;;16.60;79.80;;;;;;6290322;22;20454;-75
2023/04/14 06:12:15;;;;;;;9.20;8.40;;;;;;;;;;6289184;22;20054;-73
2023/04/14 06:14:41;;;;;;;9.55;8.80;;;;;;;;;;6286232;22;20486;-73
2023/04/14 06:17:07;;;;;;;8.90;8.18;;;;;;;;;;6286105;22;19991;-79
2023/04/14 06:19:33;;;;;;;8.93;8.07;;;16.80;65.70;;;;;;6286176;22;20004;-76
2023/04/14 06:21:59;;;;;;;7.60;6.78;;;;;;;;;;6285994;22;20000;-77
2023/04/14 06:24:25;;;;;;;7.00;6.50;;;;;;;;;;6287842;22;20327;-80
2023/04/14 06:26:52;;;;;;;7.68;6.88;;;;;;;;;;6276616;22;19995;-79
2023/04/14 06:29:18;;;;;;;5.82;5.32;;;16.90;80.60;;;;;;6276175;22;20327;-80
2023/04/14 06:31:43;;;;;;;7.75;5.78;;;16.80;75.00;;;;;;6275886;22;19995;-79
2023/04/14 06:34:09;;;;;;;5.93;5.32;;;;;;;;;;6284509;22;19999;-77
2023/04/14 06:36:36;;;;;;;5.85;5.25;;;;;;;;;;6286043;22;20427;-77
2023/04/14 06:39:03;;;;;;;6.32;4.78;;;16.90;60.90;;;;;;6285898;22;20014;-77
2023/04/14 06:41:29;;;;;;;4.93;4.53;;;;;;;;;;6286138;22;19996;-81
2023/04/14 06:43:56;;;;;;;5.35;4.55;;;;;;;;;;6276088;22;20007;-76
2023/04/14 06:46:22;;;;;;;6.22;4.50;;;16.60;82.20;;;;;;6275900;22;19996;-77
2023/04/14 06:48:48;;;;;;;7.43;3.80;;;;;;;;;;6275884;22;20000;-75
2023/04/14 06:51:14;;;;;;;4.68;3.95;;;17.00;75.00;;;;;;6275773;22;20303;-74
2023/04/14 06:53:40;;;;;;;3.75;3.40;;;16.70;83.20;;;;;;6275881;22;20086;-74
2023/04/14 06:56:07;;;;;;;3.88;3.00;;;16.70;68.50;;;;;;6275234;22;20390;-76
2023/04/14 06:58:33;;;;;;;3.63;2.80;;;;;;;;;;6275596;22;20003;-76
2023/04/14 07:01:01;;;;;;;3.28;2.90;;;17.10;58.60;;;;;;6275561;22;20007;-76
2023/04/14 07:03:29;;;;;;;3.10;2.80;;;17.10;65.90;;;;;;6275170;22;20012;-76
2023/04/14 07:06:10;;;;;;;3.58;2.80;;;17.40;68.00;;;;;;6275370;22;19995;-76
2023/04/14 07:08:37;;;;;;;3.90;2.20;;;17.00;82.90;;;;;;6273898;22;20082;-76
2023/04/14 07:11:05;;;;;;;3.58;2.25;;;17.20;52.50;;;;;;6285677;22;19999;-77
2023/04/14 07:13:32;;;;;;;3.22;2.10;;;17.20;82.70;;;;;;6275662;22;20004;-76
2023/04/14 07:16:01;;;;;;;4.43;1.58;;;17.00;52.60;;;;;;6275696;22;19996;-76
2023/04/14 07:18:26;;;;;;;2.70;1.83;;;17.20;83.10;;;;;;6285450;22;20443;-76
2023/04/14 07:20:53;;;;;;;1.52;1.40;;;16.90;82.80;;;;;;6275499;22;20007;-75
2023/04/14 07:23:19;;;;;;;3.03;1.75;;;17.10;83.70;;;;;;6285554;22;20074;-78
2023/04/14 07:25:56;;;;;;;2.03;1.58;;;17.00;53.10;;;;;;6285660;22;19996;-77
2023/04/14 07:28:22;;;;;;;2.88;1.50;;;17.10;74.80;;;;;;6273710;22;19996;-76
2023/04/14 07:30:48;;;;;;;2.72;1.50;;;;;;;;;;6273697;22;20058;-76
2023/04/14 07:33:18;;;;;;;2.88;1.40;;;16.80;68.60;;;;;;6285411;22;20496;-76
2023/04/14 07:35:45;;;;;;;1.70;1.40;;;;;;;;;;6285876;22;20430;-76
2023/04/14 07:38:10;;;;;;;1.77;1.20;;;16.60;60.80;;;;;;6273467;22;20089;-76
2023/04/14 07:40:36;;;;;;;2.10;1.33;;;;;;;;;;6285399;22;19992;-77
2023/04/14 07:43:02;;;;;;;2.17;1.23;;;16.90;84.40;;;;;;6285586;22;20071;-78
2023/04/14 07:45:29;;;;;;;2.03;1.27;;;17.10;84.20;;;;;;6274095;22;20006;-79
2023/04/14 07:47:55;;;;;;;3.53;1.45;;;;;;;;;;6287744;22;20030;-79
2023/04/14 07:50:21;;;;;;;1.85;1.20;;;;;;;;;;6287628;22;19999;-78
2023/04/14 07:52:47;;;;;;;1.48;1.10;;;;;;;;;;6287596;22;20476;-78
2023/04/14 07:55:13;;;;;;;1.98;1.25;;;;;;;;;;6287529;22;20027;-80
2023/04/14 07:57:40;;;;;;;1.73;1.30;;;;;;;;;;6287316;22;20435;-80
2023/04/14 08:00:08;;;;;;;1.40;1.05;;;17.30;83.30;;;;;;6287389;22;19999;-80
2023/04/14 08:02:34;;;;;;;1.40;1.30;;;17.20;84.70;;;;;;6287045;22;20011;-77
2023/04/14 08:04:59;;;;;;;3.38;1.02;;;17.20;86.00;;;;;;6287472;22;20002;-76
2023/04/14 08:07:27;;;;;;;3.08;1.30;;;17.20;67.50;;;;;;6287381;22;20070;-76
2023/04/14 08:09:53;;;;;;;2.20;1.05;;;;;;;;;;6287305;22;19992;-76
2023/04/14 08:12:19;;;;;;;1.77;0.90;;;;;;;;;;6287111;22;19996;-76
2023/04/14 08:14:46;;;;;;;2.78;1.10;;;;;;;;;;6286879;22;20008;-76
2023/04/14 08:17:12;;;;;;;3.05;1.30;;;;;;;;;;6287137;22;20006;-78
2023/04/14 08:19:38;;;;;;;1.80;1.00;;;;;;;;;;6286966;22;20104;-75
2023/04/14 08:22:04;;;;;;;1.55;1.00;;;;;;;;;;6286207;22;19999;-77
2023/04/14 08:24:30;;;;;;;2.00;1.00;;;17.00;86.20;;;;;;6289448;22;19995;-80
2023/04/14 08:26:56;;;;;;;3.83;1.15;;;16.90;86.30;;;;;;6288342;22;20019;-77
2023/04/14 08:29:22;;;;;;;1.92;0.90;;;17.40;86.00;;;;;;6249886;22;19995;-78
2023/04/14 08:31:48;;;;;;;2.70;1.02;;;;;;;;;;6287294;22;20007;-82
2023/04/14 08:34:14;;;;;;;2.30;0.93;;;17.30;53.90;;;;;;6277353;22;20023;-79
2023/04/14 08:36:40;;;;;;;1.40;0.88;;;;;;;;;;6287278;22;19999;-83
2023/04/14 08:39:06;;;;;;;3.47;1.00;;;17.50;87.20;;;;;;6275157;22;20012;-79
2023/04/14 08:41:33;;;;;;;2.50;0.90;;;17.30;86.80;;;;;;6275204;22;20036;-81
2023/04/14 08:43:59;;;;;;;2.58;1.13;;;17.30;86.60;;;;;;6275260;22;20000;-76
2023/04/14 08:46:26;;;;;;;2.05;0.93;;;17.50;87.00;;;;;;6275176;22;20346;-77
2023/04/14 08:49:03;;;;;;;1.63;0.93;;;17.40;55.60;;;;;;6287133;22;20074;-77
2023/04/14 08:51:33;;;;;;;2.15;0.80;;;17.40;77.20;;;;;;6277127;22;19996;-76
2023/04/14 08:54:00;;;;;;;3.05;1.50;;;17.30;86.30;;;;;;6286843;22;20004;-75
2023/04/14 08:56:46;;;;;;;1.77;0.80;;;17.50;86.00;;;;;;6276426;22;20002;-76
2023/04/14 08:59:12;;;;;;;2.25;0.90;;;;;;;;;;6276127;22;20007;-76
2023/04/14 09:01:39;;;;;;;3.67;1.42;;;17.40;85.50;;;;;;6276240;22;20006;-73
2023/04/14 09:04:06;;;;;;;4.75;1.30;;;17.70;86.10;;;;;;6276196;22;20450;-75
2023/04/14 09:06:33;;;;;;;3.28;0.82;;;17.50;69.80;;;;;;6274727;22;20323;-72
2023/04/14 09:09:05;;;;;;;1.27;0.80;;;17.50;55.00;;;;;;6276466;22;20020;-72
2023/04/14 09:11:31;;;;;;;1.17;0.70;;;17.70;70.50;;;;;;6276294;22;19995;-75
2023/04/14 09:13:58;;;;;;;1.33;0.80;;;17.50;85.80;;;;;;6274642;22;20038;-73
2023/04/14 09:16:25;;;;;;;3.85;0.85;;;17.60;86.50;;;;;;6259813;22;20102;-77
2023/04/14 09:18:53;;;;;;;2.90;1.02;;;17.80;55.60;;;;;;6260122;22;20012;-81
2023/04/14 09:21:18;;;;;;;1.85;0.90;;;17.70;86.80;;;;;;6260357;22;20045;-80
2023/04/14 09:23:45;;;;;;;2.00;0.90;;;;;;;;;;6260164;22;20015;-78
2023/04/14 09:26:12;;;;;;;4.53;0.90;;;;;;;;;;6277024;22;20053;-80
2023/04/14 09:28:39;;;;;;;4.57;1.00;;;17.90;86.40;;;;;;6277184;22;20057;-79
2023/04/14 09:31:05;;;;;;;4.32;1.08;;;18.20;86.40;;;;;;6276922;22;19996;-79
2023/04/14 09:33:32;;;;;;;3.50;0.88;;;;;;;;;;6277429;22;20003;-76
2023/04/14 09:35:59;;;;;;;3.20;0.98;;;;;;;;;;6276647;22;19999;-75
2023/04/14 09:38:38;;;;;;;3.70;0.93;;;18.00;51.40;;;;;;6276473;22;20012;-75
2023/04/14 09:41:08;;;;;;;2.65;0.90;;;18.00;85.00;;;;;;6276072;22;20007;-75
2023/04/14 09:43:35;;;;;;;3.63;0.77;;;18.20;84.80;;;;;;6276595;22;20000;-76
2023/04/14 09:46:06;;;;;;;2.40;1.15;;;18.30;51.30;;;;;;6286719;22;19996;-76
2023/04/14 09:48:33;;;;;;;1.40;0.70;;;18.10;84.30;;;;;;6276599;22;20372;-76
2023/04/14 09:51:02;;;;;;;2.03;0.95;;;18.50;53.40;;;;;;6276115;22;20449;-75
2023/04/14 09:53:30;;;;;;;1.63;1.00;;;18.40;80.10;;;;;;6276434;22;20019;-75
2023/04/14 09:55:58;;;;;;;3.70;1.17;;;18.60;84.20;;;;;;6274391;22;19991;-75
2023/04/14 09:58:36;;;;;;;2.47;0.95;;;18.20;84.50;;;;;;6276292;22;20018;-75
2023/04/14 10:01:04;;;;;;;3.25;1.60;;;18.70;84.60;;;;;;6276212;22;19996;-76
2023/04/14 10:03:36;;;;;;;2.25;0.75;;;18.60;84.60;;;;;;6275827;22;20012;-77
2023/04/14 10:06:06;;;;;;;2.58;1.30;;;18.90;84.40;;;;;;6275944;22;20069;-76
2023/04/14 10:08:45;;;;;;;2.88;0.93;;;19.10;84.70;;;;;;6275592;22;20027;-77
2023/04/14 10:11:25;;;;;;;3.35;0.60;;;18.90;53.30;;;;;;6286515;22;20330;-76
2023/04/14 10:13:56;;;;;;;2.20;0.90;;;18.90;50.20;;;;;;6286133;22;19992;-77
2023/04/14 10:16:22;;;;;;;1.42;0.73;;;19.20;84.10;;;;;;6286107;22;20046;-76
2023/04/14 10:18:49;;;;;;;1.83;0.60;;;19.10;61.90;;;;;;6286135;22;20454;-77
2023/04/14 10:21:16;;;;;;;1.85;0.80;;;18.50;53.00;;;;;;6285896;22;19995;-77
2023/04/14 10:23:43;;;;;;;2.70;0.60;;;19.30;83.50;;;;;;6275766;22;19995;-78
2023/04/14 10:26:12;;;;;;;2.40;0.65;;;19.00;83.40;;;;;;6276036;22;20007;-77
2023/04/14 10:28:46;;;;;;;3.33;0.77;;;18.80;83.60;;;;;;6249298;22;20095;-76
2023/04/14 10:31:37;;;;;;;2.13;0.70;;;19.20;83.60;;;;;;6274641;22;20007;-78
2023/04/14 10:34:15;;;;;;;2.85;0.70;;;19.10;58.70;;;;;;6274451;22;19996;-78
2023/04/14 10:36:42;;;;;;;0.77;0.68;;;18.90;84.30;;;;;;6274469;22;20011;-79
2023/04/14 10:39:10;;;;;;;1.45;0.40;;;19.20;84.40;;;;;;6258677;22;20012;-75
2023/04/14 10:41:46;;;;;;;1.67;0.45;;;19.30;83.80;;;;;;6284266;22;20007;-78
2023/04/14 10:44:27;;;;;;;1.85;0.60;;;19.10;84.10;;;;;;6285909;22;20003;-79
2023/04/14 10:46:57;;;;;;;0.88;0.50;;;19.10;84.30;;;;;;6285832;22;19996;-78
2023/04/14 10:49:32;;;;;;;1.98;0.45;;;19.10;84.60;;;;;;6286078;22;19991;-74
2023/04/14 10:52:02;;;;;;;2.08;0.60;;;19.20;84.20;;;;;;6285754;22;20427;-74
2023/04/14 10:54:47;;;;;;;3.17;0.52;;;19.20;53.50;;;;;;6273648;22;20326;-74
2023/04/14 10:57:14;;;;;;;2.53;0.77;;;19.50;84.70;;;;;;6285439;22;20000;-74
2023/04/14 10:59:41;;;;;;;1.55;0.52;;;19.30;83.70;;;;;;6275275;22;20008;-75
2023/04/14 11:02:28;;;;;;;1.67;0.57;;;19.50;83.90;;;;;;6274683;22;20010;-74
2023/04/14 11:05:04;;;;;;;1.23;0.50;;;19.50;83.70;;;;;;6275119;22;20430;-75
2023/04/14 11:07:45;;;;;;;1.55;0.75;;;19.60;52.40;;;;;;6276029;22;20024;-78
2023/04/14 11:10:21;;;;;;;0.77;0.50;;;19.60;49.50;;;;;;6276909;22;20003;-77
2023/04/14 11:13:08;;;;;;;1.80;0.70;;;20.10;58.90;;;;;;6278263;22;20011;-76
2023/04/14 11:15:56;;;;;;;1.98;0.70;;;19.90;49.20;;;;;;6255528;22;20000;-78
2023/04/14 11:18:34;;;;;;;1.33;0.75;;;20.10;57.10;;;;;;6285261;22;19995;-76
2023/04/14 11:21:09;;;;;;;1.38;0.40;;;19.90;82.10;;;;;;6275793;22;20431;-76
2023/04/14 11:23:37;;;;;;;0.85;0.60;;;20.20;50.90;;;;;;6277671;22;19996;-76
2023/04/14 11:26:07;;;;;;;1.23;0.60;;;20.30;48.40;;;;;;6277071;22;20011;-74
2023/04/14 11:28:39;;;;;;;2.63;0.80;;;20.60;75.80;;;;;;6286574;22;19999;-74
2023/04/14 11:31:07;;;;;;;0.70;0.50;;;20.70;52.90;;;;;;6286077;22;20008;-74
2023/04/14 11:33:36;;;;;;;2.00;0.75;;;20.50;50.40;;;;;;6277357;22;20387;-74
2023/04/14 11:36:04;;;;;;;1.70;0.50;;;21.50;52.30;;;;;;6275883;22;20006;-73
2023/04/14 11:38:34;;;;;;;1.75;0.50;;;20.50;49.60;;;;;;6250301;22;20011;-75
2023/04/14 11:41:01;;;;;;;1.23;0.50;;;20.30;81.10;;;;;;6251323;22;20000;-74
2023/04/14 11:43:30;;;;;;;3.38;0.47;;;20.40;48.10;;;;;;6250623;22;20026;-76
2023/04/14 11:45:59;;;;;;;1.70;0.60;;;20.50;51.00;;;;;;6277637;22;20003;-76
2023/04/14 11:48:27;;;;;;;1.50;0.73;;;20.30;50.90;;;;;;6276971;22;20002;-75
2023/04/14 11:50:55;;;;;;;1.50;0.40;;;;;;;;;;6276872;22;19995;-75
2023/04/14 11:53:21;;;;;;;1.25;0.57;;;;;;;;;;6277212;22;20006;-74
2023/04/14 11:55:50;;;;;;;0.65;0.47;;;20.20;73.90;;;;;;6277171;22;19999;-74
2023/04/14 11:58:23;;;;;;;1.02;0.50;;;20.70;81.60;;;;;;6276693;22;20470;-74
2023/04/14 12:00:49;;;;;;;1.70;0.55;;;;;;;;;;6277069;22;20019;-76
2023/04/14 12:03:16;;;;;;;0.82;0.52;;;21.00;59.30;;;;;;6286847;22;20008;-75
2023/04/14 12:05:42;;;;;;;0.77;0.43;;;20.40;80.20;;;;;;6286962;22;20055;-74
2023/04/14 12:08:09;;;;;;;1.00;0.60;;;20.80;49.50;;;;;;6274985;22;19992;-74
2023/04/14 12:10:36;;;;;;;1.83;0.60;;;21.00;81.60;;;;;;6286999;22;20046;-74
2023/04/14 12:13:09;;;;;;;1.20;0.40;;;20.90;51.60;;;;;;6276965;22;20074;-82
2023/04/14 12:15:37;;;;;;;2.83;0.32;;;21.10;81.50;;;;;;6286917;22;20000;-75
2023/04/14 12:18:13;;;;;;;2.17;0.82;;;20.90;81.20;;;;;;6286808;22;20351;-77
2023/04/14 12:21:00;;;;;;;1.33;0.52;;;21.10;47.50;;;;;;6287022;22;19992;-75
2023/04/14 12:23:26;;;;;;;0.70;0.43;;;20.90;80.20;;;;;;6276819;22;20008;-73
2023/04/14 12:25:52;;;;;;;1.30;0.45;;;21.10;53.50;;;;;;6276858;22;19992;-73
2023/04/14 12:28:24;;;;;;;1.73;0.52;;;20.90;79.80;;;;;;6276859;22;19999;-73
2023/04/14 12:30:51;;;;;;;1.45;0.40;;;21.10;80.00;;;;;;6276838;22;20000;-74
2023/04/14 12:33:22;;;;;;;1.52;0.30;;;21.40;49.80;;;;;;6276215;22;19996;-72
2023/04/14 12:35:51;;;;;;;1.15;0.40;;;20.90;48.70;;;;;;6276267;22;19992;-73
2023/04/14 12:38:18;;;;;;;1.42;0.50;;;;;;;;;;6276674;22;20008;-74
2023/04/14 12:40:46;;;;;;;1.70;0.60;;;20.90;81.20;;;;;;6276698;22;19996;-73
2023/04/14 12:43:13;;;;;;;0.68;0.40;;;20.90;81.00;;;;;;6276668;22;19995;-75
2023/04/14 12:45:49;;;;;;;0.47;0.32;;;20.90;57.00;;;;;;6276660;22;20054;-74
2023/04/14 12:48:16;;;;;;;0.65;0.40;;;21.10;82.30;;;;;;6276386;22;19996;-75
2023/04/14 12:50:43;;;;;;;1.02;0.40;;;21.00;70.80;;;;;;6276677;22;19995;-75
2023/04/14 12:53:26;;;;;;;1.48;0.63;;;20.90;52.40;;;;;;6276587;22;20023;-75
2023/04/14 12:56:09;;;;;;;0.75;0.50;;;21.10;48.10;;;;;;6276324;22;19993;-75
2023/04/14 12:58:39;;;;;;;0.30;0.30;;;20.90;54.80;;;;;;6276558;22;20365;-73
2023/04/14 13:01:10;;;;;;;1.58;0.60;;;21.30;55.30;;;;;;6276480;22;20003;-73
2023/04/14 13:03:44;;;;;;;0.80;0.50;;;21.30;76.30;;;;;;6275982;22;20012;-73
2023/04/14 13:06:11;;;;;;;1.40;0.55;;;21.20;58.30;;;;;;6286462;22;20318;-74
2023/04/14 13:08:42;;;;;;;1.95;0.40;;;21.10;56.00;;;;;;6276328;22;19999;-74
2023/04/14 13:11:08;;;;;;;0.73;0.40;;;21.80;79.50;;;;;;6276440;22;19999;-73
2023/04/14 13:13:35;;;;;;;0.93;0.50;;;;;;;;;;6276000;22;20003;-73